Latest Coastal Weather Observations for Alva Beach

IDQ60701

Issued at 7:31 am EST Friday 18 October 2019 (issued every 10 minutes, with the page automatically refreshed every 10 minutes)

About coastal observations | Map of coastal stations | Coastal observations for QLD | Marine services | Other Formats
Station Details ID: 033295 Name: ALVA BEACH Lat: -19.46 Lon: 147.48 Height: 7.5 m
Data from the previous 72 hours. | See also: Recent months at Alva Beach
Date/Time
EST
Wind Sea
Height
m
Swell Vis
km
Cloud Weather Temp
°C
Press
hPa
Rain since
9am
mm
Dir  Spd
kts
Gust
kts
Height
m
Period
s
Dir
18/07:30am NNE 10 13 - - - - - - - 25.8 1017.0 0.0
18/07:00am NNE 10 12 - - - - - - - 25.4 1016.7 0.0
18/06:30am NNE 11 14 - - - - - - - 24.8 1016.3 0.0
18/06:00am NNE 13 15 - - - - - - - 24.2 1015.7 0.0
18/05:30am NNE 12 14 - - - - - - - 24.0 1015.4 0.0
18/05:00am NNE 12 15 - - - - - - - 24.1 1015.2 0.0
18/04:30am NNE 12 16 - - - - - - - 24.1 1014.7 0.0
18/04:00am NNE 13 15 - - - - - - - 24.2 1014.8 0.0
18/03:30am N 11 16 - - - - - - - 24.2 1014.6 0.0
18/03:00am NNE 12 15 - - - - - - - 24.3 1014.5 0.0
18/02:30am NNE 14 17 - - - - - - - 24.2 1014.5 0.0
18/02:00am NNE 12 15 - - - - - - - 24.2 1014.8 0.0
18/01:30am NNE 13 16 - - - - - - - 24.5 1015.0 0.0
18/01:00am NNE 13 15 - - - - - - - 24.5 1015.4 0.0
18/12:30am NNE 12 15 - - - - - - - 24.5 1015.8 0.0
18/12:00am NNE 12 16 - - - - - - - 24.6 1015.8 0.0
 
Date/Time
EST
Wind Sea
Height
m
Swell Vis
km
Cloud Weather Temp
°C
Press
hPa
Rain since
9am
mm
Dir  Spd
kts
Gust
kts
Height
m
Period
s
Dir
17/11:30pm NNE 13 16 - - - - - - - 24.6 1015.9 0.0
17/11:00pm NNE 13 16 - - - - - - - 24.7 1016.0 0.0
17/10:30pm N 11 15 - - - - - - - 25.0 1016.2 0.0
17/10:00pm NNE 12 16 - - - - - - - 24.8 1016.1 0.0
17/09:30pm N 10 13 - - - - - - - 24.8 1016.1 0.0
17/09:00pm N 9 13 - - - - - - - 24.8 1016.1 0.0
17/08:30pm N 9 13 - - - - - - - 24.9 1015.9 0.0
17/08:00pm NNE 11 14 - - - - - - - 24.9 1015.7 0.0
17/07:30pm NNE 13 16 - - - - - - - 24.9 1015.4 0.0
17/07:00pm NNE 14 16 - - - - - - - 25.1 1015.0 0.0
17/06:30pm NNE 13 16 - - - - - - - 25.2 1014.7 0.0
17/06:00pm NNE 11 14 - - - - - - - 25.3 1014.6 0.0
17/05:30pm NNE 12 14 - - - - - - - 25.6 1014.4 0.0
17/05:00pm N 10 14 - - - - - - - 25.9 1014.4 0.0
17/04:30pm NNE 12 14 - - - - - - - 26.6 1014.1 0.0
17/04:00pm NNE 13 16 - - - - - - - 26.8 1014.0 0.0
17/03:30pm NNE 12 15 - - - - - - - 27.2 1014.0 0.0
17/03:00pm NNE 12 15 - - - - - - - 27.5 1014.3 0.0
17/02:30pm NNE 12 16 - - - - - - - 27.7 1014.4 0.0
17/02:00pm NNE 12 14 - - - - - - - 27.3 1014.9 0.0
17/01:30pm NNE 13 15 - - - - - - - 27.3 1015.2 0.0
17/01:00pm NNE 13 15 - - - - - - - 27.6 1015.5 0.0
17/12:30pm NNE 13 16 - - - - - - - 27.4 1015.9 0.0
17/12:00pm NNE 14 15 - - - - - - - 27.5 1016.4 0.0
17/11:30am NE 13 15 - - - - - - - 27.1 1016.9 0.0
17/11:00am NNE 11 13 - - - - - - - 28.0 1017.2 0.0
17/10:30am NNE 11 13 - - - - - - - 27.3 1017.2 0.0
17/10:00am NNE 11 13 - - - - - - - 27.5 1017.3 0.0
17/09:30am NNE 11 14 - - - - - - - 27.1 1017.3 0.0
17/09:00am NNE 12 14 - - - - - - - 26.7 1017.0 0.0
17/08:30am NNE 13 15 - - - - - - - 26.7 1016.6 0.0
17/08:00am NNE 12 15 - - - - - - - 26.2 1016.3 0.0
17/07:30am NNE 14 16 - - - - - - - 25.7 1016.0 0.0
17/07:00am NNE 13 16 - - - - - - - 25.4 1015.7 0.0
17/06:30am NNE 12 15 - - - - - - - 24.7 1015.3 0.0
17/06:00am NNE 10 13 - - - - - - - 24.3 1014.8 0.0
17/05:30am NNE 9 11 - - - - - - - 24.0 1014.7 0.0
17/05:00am N 9 13 - - - - - - - 24.1 1014.6 0.0
17/04:30am N 6 11 - - - - - - - 24.2 1014.3 0.0
17/04:00am N 7 11 - - - - - - - 24.3 1014.3 0.0
17/03:30am NNE 10 13 - - - - - - - 24.3 1014.2 0.0
17/03:00am N 7 12 - - - - - - - 24.3 1014.0 0.0
17/02:30am N 7 12 - - - - - - - 24.4 1013.9 0.0
17/02:00am NNE 13 17 - - - - - - - 24.0 1013.9 0.0
17/01:30am N 7 11 - - - - - - - 24.5 1014.3 0.0
17/01:00am N 10 13 - - - - - - - 24.4 1014.4 0.0
17/12:30am N 8 11 - - - - - - - 24.7 1014.6 0.0
17/12:00am NNE 11 13 - - - - - - - 24.5 1014.8 0.0
 
Date/Time
EST
Wind Sea
Height
m
Swell Vis
km
Cloud Weather Temp
°C
Press
hPa
Rain since
9am
mm
Dir  Spd
kts
Gust
kts
Height
m
Period
s
Dir
16/11:30pm NNE 11 13 - - - - - - - 24.4 1014.9 0.0
16/11:00pm NNE 13 15 - - - - - - - 24.5 1014.8 0.0
16/10:30pm NNE 11 13 - - - - - - - 24.6 1015.0 0.0
16/10:00pm NNE 13 15 - - - - - - - 24.6 1015.1 0.0
16/09:30pm NNE 12 14 - - - - - - - 24.7 1015.2 0.0
16/09:00pm NE 13 15 - - - - - - - 24.7 1015.0 0.0
16/08:30pm NE 11 13 - - - - - - - 24.7 1014.7 0.0
16/08:00pm NE 12 15 - - - - - - - 24.7 1014.6 0.0
16/07:30pm NE 12 13 - - - - - - - 24.8 1014.5 0.0
16/07:00pm NNE 11 13 - - - - - - - 24.8 1014.3 0.0
16/06:30pm NNE 11 14 - - - - - - - 24.9 1014.2 0.0
16/06:00pm NNE 13 15 - - - - - - - 25.1 1013.9 0.0
16/05:30pm NNE 13 16 - - - - - - - 25.4 1013.6 0.0
16/05:00pm NNE 12 15 - - - - - - - 25.7 1013.4 0.0
16/04:30pm NNE 12 15 - - - - - - - 26.1 1013.2 0.0
16/04:00pm NNE 12 16 - - - - - - - 26.2 1013.2 0.0
16/03:30pm N 11 16 - - - - - - - 26.5 1013.1 0.0
16/03:00pm N 11 16 - - - - - - - 27.3 1013.1 0.0
16/02:30pm N 13 17 - - - - - - - 27.3 1013.3 0.0
16/02:00pm N 13 17 - - - - - - - 27.4 1013.6 0.0
16/01:30pm NNE 15 18 - - - - - - - 27.4 1014.0 0.0
16/01:00pm NNE 13 17 - - - - - - - 27.2 1014.3 0.0
16/12:30pm NNE 15 19 - - - - - - - 27.1 1014.4 0.0
16/12:00pm NNE 13 17 - - - - - - - 26.9 1015.0 0.0
16/11:30am NNE 13 16 - - - - - - - 26.9 1015.3 0.0
16/11:00am NNE 13 16 - - - - - - - 27.3 1015.6 0.0
16/10:30am NNE 13 16 - - - - - - - 27.4 1015.7 0.0
16/10:00am N 11 15 - - - - - - - 27.5 1016.0 0.0
16/09:30am N 10 14 - - - - - - - 26.6 1015.9 0.0
16/09:00am N 11 17 - - - - - - - 26.7 1016.0 0.0
16/08:30am N 8 14 - - - - - - - 26.5 1016.0 0.0
16/08:00am N 10 14 - - - - - - - 25.9 1015.4 0.0
16/07:30am N 8 12 - - - - - - - 24.9 1015.3 0.0
16/07:00am N 9 14 - - - - - - - 24.7 1014.8 0.0
16/06:30am NNW 6 12 - - - - - - - 24.0 1014.3 0.0
16/06:00am NNW 7 10 - - - - - - - 23.6 1013.8 0.0
16/05:30am NNW 6 10 - - - - - - - 23.5 1013.5 0.0
16/05:00am N 8 13 - - - - - - - 23.7 1013.2 0.0
16/04:30am N 9 13 - - - - - - - 23.6 1012.8 0.0
16/04:00am N 8 13 - - - - - - - 23.7 1012.7 0.0
16/03:30am N 8 12 - - - - - - - 23.6 1012.7 0.0
16/03:00am N 5 8 - - - - - - - 23.3 1012.8 0.0
16/02:30am N 6 9 - - - - - - - 23.3 1012.2 0.0
16/02:00am NNW 6 9 - - - - - - - 23.1 1012.0 0.0
16/01:30am NNW 5 8 - - - - - - - 23.1 1012.3 0.0
16/01:00am NNW 5 8 - - - - - - - 23.1 1012.6 0.0
16/12:30am NNW 6 8 - - - - - - - 23.2 1012.6 0.0
16/12:00am NNW 5 8 - - - - - - - 23.3 1012.8 0.0
 
Date/Time
EST
Wind Sea
Height
m
Swell Vis
km
Cloud Weather Temp
°C
Press
hPa
Rain since
9am
mm
Dir  Spd
kts
Gust
kts
Height
m
Period
s
Dir
15/11:30pm NNW 6 9 - - - - - - - 23.3 1013.1 0.0
15/11:00pm NNW 6 10 - - - - - - - 23.3 1013.2 0.0
15/10:30pm NNW 6 12 - - - - - - - 23.6 1013.2 0.0
15/10:00pm N 8 11 - - - - - - - 24.0 1013.3 0.0
15/09:30pm N 7 12 - - - - - - - 24.0 1013.3 0.0
15/09:00pm N 11 15 - - - - - - - 24.1 1013.2 0.0
15/08:30pm NNE 13 15 - - - - - - - 24.1 1013.0 0.0
15/08:00pm NNE 10 13 - - - - - - - 24.1 1012.9 0.0
15/07:30pm NNE 11 14 - - - - - - - 24.1 1012.5 0.0
15/07:00pm N 7 11 - - - - - - - 24.1 1012.5 0.0
15/06:30pm NNW 5 9 - - - - - - - 24.1 1012.1 0.0
15/06:00pm N 7 11 - - - - - - - 24.5 1012.1 0.0
15/05:30pm N 9 13 - - - - - - - 24.8 1011.9 0.0
15/05:00pm N 9 14 - - - - - - - 25.2 1011.6 0.0
15/04:30pm N 11 15 - - - - - - - 25.6 1011.3 0.0
15/04:00pm N 11 16 - - - - - - - 25.9 1011.7 0.0
15/03:30pm N 10 16 - - - - - - - 26.5 1011.9 0.0
15/03:00pm N 10 15 - - - - - - - 26.2 1012.3 0.0
15/02:30pm N 11 15 - - - - - - - 26.4 1012.4 0.0
15/02:00pm N 14 19 - - - - - - - 26.9 1012.4 0.0
15/01:30pm N 11 16 - - - - - - - 27.0 1013.0 0.0
15/01:00pm N 10 15 - - - - - - - 27.0 1013.4 0.0
15/12:30pm NNW 8 14 - - - - - - - 27.8 1014.1 0.0
15/12:00pm NNW 7 13 - - - - - - - 27.9 1014.8 0.0
15/11:30am NNW 8 13 - - - - - - - 27.6 1015.3 0.0
15/11:00am NNW 8 13 - - - - - - - 27.0 1015.7 0.0
15/10:30am NNW 7 13 - - - - - - - 26.9 1016.1 0.0
15/10:00am N 8 15 - - - - - - - 27.1 1016.2 0.0
15/09:30am N 9 15 - - - - - - - 26.8 1016.3 0.0
15/09:00am N 10 14 - - - - - - - 26.4 1016.5 0.4
15/08:30am N 9 13 - - - - - - - 26.3 1016.2 0.4
15/08:00am N 8 12 - - - - - - - 25.8 1016.2 0.4

Other formats

Comma delimited format used in spreadsheet applications
http://www.bom.gov.au/fwo/IDQ60701/IDQ60701.95296.axf

JavaScript Object Notation format (JSON) in row-major order
http://www.bom.gov.au/fwo/IDQ60701/IDQ60701.95296.json

Data quality

Most of these data are generated automatically and are frequently updated. Quality checks on data are not normally performed. It is possible for incorrect values to appear. Refer to information at About Latest Weather Observations and please check the disclaimer before using these data.